createdAt,value
2018-09-06T00:00:06.637Z,92.20
2018-09-06T00:02:35.825Z,92.40
2018-09-06T00:05:05.140Z,92.80
2018-09-06T00:07:34.360Z,93.00
2018-09-06T00:10:03.624Z,93.00
2018-09-06T00:12:32.808Z,93.00
2018-09-06T00:15:02.081Z,92.80
2018-09-06T00:17:31.280Z,92.70
2018-09-06T00:20:00.489Z,92.70
2018-09-06T00:22:29.669Z,92.40
2018-09-06T00:24:58.861Z,92.60
2018-09-06T00:27:28.050Z,92.40
2018-09-06T00:29:57.253Z,92.50
2018-09-06T00:32:26.438Z,92.40
2018-09-06T00:34:55.676Z,92.60
2018-09-06T00:37:24.857Z,92.70
2018-09-06T00:39:54.049Z,92.70
2018-09-06T00:42:23.389Z,93.00
2018-09-06T00:44:52.653Z,93.40
2018-09-06T00:47:22.005Z,93.70
2018-09-06T00:49:51.220Z,93.90
2018-09-06T00:52:20.430Z,94.00
2018-09-06T00:54:49.638Z,94.10
2018-09-06T00:57:18.847Z,94.10
2018-09-06T00:59:48.027Z,94.00
2018-09-06T01:02:17.229Z,93.90
2018-09-06T01:04:46.448Z,94.00
2018-09-06T01:07:15.660Z,94.00
2018-09-06T01:09:44.840Z,94.10
2018-09-06T01:12:15.432Z,93.80
2018-09-06T01:14:44.824Z,93.70
2018-09-06T01:17:14.261Z,93.60
2018-09-06T01:19:43.700Z,93.40
2018-09-06T01:22:12.920Z,93.80
2018-09-06T01:24:42.283Z,94.10
2018-09-06T01:27:11.489Z,94.40
2018-09-06T01:29:40.797Z,94.60
2018-09-06T01:32:09.993Z,95.10
2018-09-06T01:34:39.336Z,94.40
2018-09-06T01:37:10.393Z,94.80
2018-09-06T01:39:40.513Z,94.60
2018-09-06T01:42:10.063Z,94.30
2018-09-06T01:44:39.268Z,94.20
2018-09-06T01:47:08.501Z,94.60
2018-09-06T01:49:37.695Z,94.60
2018-09-06T01:52:06.904Z,94.60
2018-09-06T01:54:36.076Z,95.10
2018-09-06T01:57:05.292Z,94.80
2018-09-06T01:59:36.665Z,94.90
2018-09-06T02:02:06.179Z,95.00
2018-09-06T02:04:35.420Z,95.00
2018-09-06T02:07:04.687Z,94.80
2018-09-06T02:09:33.893Z,94.70
2018-09-06T02:12:03.096Z,94.80
2018-09-06T02:14:32.348Z,94.90
2018-09-06T02:17:01.540Z,95.10
2018-09-06T02:19:30.734Z,95.20
2018-09-06T02:21:59.929Z,95.10
2018-09-06T02:24:29.186Z,94.70
2018-09-06T02:26:58.344Z,94.50
2018-09-06T02:29:27.533Z,94.50
2018-09-06T02:31:56.724Z,94.40
2018-09-06T02:34:25.933Z,94.30
2018-09-06T02:36:55.153Z,94.40
2018-09-06T02:39:24.380Z,94.60
2018-09-06T02:41:53.579Z,94.70
2018-09-06T02:44:22.746Z,94.80
2018-09-06T02:46:51.953Z,94.70
2018-09-06T02:49:26.528Z,94.70
2018-09-06T02:51:55.723Z,94.70
2018-09-06T02:54:24.917Z,94.60
2018-09-06T02:56:54.206Z,94.60
2018-09-06T02:59:23.804Z,94.50
2018-09-06T03:01:52.992Z,94.60
2018-09-06T03:04:22.152Z,94.50
2018-09-06T03:06:51.424Z,94.80
2018-09-06T03:09:22.318Z,94.90
2018-09-06T03:11:54.991Z,94.90
2018-09-06T03:14:24.162Z,95.00
2018-09-06T03:16:53.361Z,95.00
2018-09-06T03:19:22.538Z,95.00
2018-09-06T03:21:51.824Z,95.20
2018-09-06T03:24:21.004Z,95.30
2018-09-06T03:26:50.229Z,95.40
2018-09-06T03:29:19.401Z,95.50
2018-09-06T03:31:48.644Z,95.50
2018-09-06T03:34:17.808Z,95.60
2018-09-06T03:36:46.988Z,95.50
2018-09-06T03:39:16.148Z,95.60
2018-09-06T03:41:45.344Z,95.50
2018-09-06T03:44:14.560Z,95.60
2018-09-06T03:46:43.756Z,95.60
2018-09-06T03:49:12.929Z,95.60
2018-09-06T03:51:42.156Z,95.60
2018-09-06T03:54:11.336Z,95.50
2018-09-06T03:56:40.580Z,95.50
2018-09-06T03:59:09.760Z,95.40
2018-09-06T04:01:38.988Z,95.50
2018-09-06T04:04:08.160Z,95.40
2018-09-06T04:06:37.357Z,95.40
2018-09-06T04:09:10.013Z,95.40
2018-09-06T04:11:39.226Z,95.50
2018-09-06T04:14:08.408Z,95.50
2018-09-06T04:16:38.073Z,95.50
2018-09-06T04:19:07.682Z,95.60
2018-09-06T04:21:36.872Z,95.50
2018-09-06T04:24:06.453Z,95.50
2018-09-06T04:26:35.656Z,95.50
2018-09-06T04:29:04.864Z,95.40
2018-09-06T04:31:34.036Z,95.30
2018-09-06T04:34:03.248Z,95.40
2018-09-06T04:36:32.441Z,95.40
2018-09-06T04:39:08.657Z,95.40
2018-09-06T04:41:37.829Z,95.50
2018-09-06T04:44:07.120Z,95.40
2018-09-06T04:46:36.660Z,95.80
2018-09-06T04:49:05.872Z,95.40
2018-09-06T04:51:35.052Z,95.50
2018-09-06T04:54:04.248Z,95.60
2018-09-06T04:56:33.433Z,95.80
2018-09-06T04:59:02.641Z,96.10
2018-09-06T05:01:31.832Z,96.30
2018-09-06T05:04:01.048Z,96.40
2018-09-06T05:06:30.229Z,96.40
2018-09-06T05:08:59.496Z,96.30
2018-09-06T05:11:29.575Z,96.30
2018-09-06T05:13:58.780Z,96.30
2018-09-06T05:16:27.968Z,96.30
2018-09-06T05:18:57.175Z,96.20
2018-09-06T05:21:26.356Z,96.20
2018-09-06T05:23:55.559Z,96.10
2018-09-06T05:26:24.861Z,96.10
2018-09-06T05:28:54.080Z,95.90
2018-09-06T05:31:23.260Z,95.70
2018-09-06T05:33:52.460Z,95.60
2018-09-06T05:36:21.699Z,95.60
2018-09-06T05:38:50.888Z,95.70
2018-09-06T05:41:20.068Z,95.60
2018-09-06T05:43:49.278Z,95.60
2018-09-06T05:46:18.496Z,95.60
2018-09-06T05:48:47.693Z,95.80
2018-09-06T05:51:16.885Z,95.80
2018-09-06T05:53:46.093Z,95.80
2018-09-06T05:56:15.264Z,95.90
2018-09-06T05:58:44.475Z,95.80
2018-09-06T06:01:13.660Z,95.80
2018-09-06T06:03:42.847Z,95.60
2018-09-06T06:06:12.046Z,95.50
2018-09-06T06:08:45.837Z,95.60
2018-09-06T06:11:15.044Z,95.60
2018-09-06T06:13:44.261Z,95.60
2018-09-06T06:16:13.957Z,95.60
2018-09-06T06:18:43.398Z,95.40
2018-09-06T06:21:12.888Z,95.30
2018-09-06T06:23:42.168Z,95.30
2018-09-06T06:26:11.426Z,95.30
2018-09-06T06:28:40.603Z,95.20
2018-09-06T06:31:09.809Z,95.20
2018-09-06T06:33:39.025Z,95.10
2018-09-06T06:36:08.228Z,94.90
2018-09-06T06:38:37.480Z,95.10
2018-09-06T06:41:06.707Z,94.60
2018-09-06T06:43:35.920Z,94.60
2018-09-06T06:46:05.128Z,94.40
2018-09-06T06:48:34.336Z,94.30
2018-09-06T06:51:03.520Z,94.10
2018-09-06T06:53:32.724Z,93.80
2018-09-06T06:56:01.959Z,93.50
2018-09-06T06:58:31.192Z,93.40
2018-09-06T07:01:00.407Z,93.10
2018-09-06T07:03:29.600Z,93.00
2018-09-06T07:05:58.776Z,92.90
2018-09-06T07:08:28.009Z,92.60
2018-09-06T07:10:57.196Z,92.50
2018-09-06T07:13:26.400Z,92.30
2018-09-06T07:15:55.579Z,91.90
2018-09-06T07:18:24.901Z,91.90
2018-09-06T07:20:54.012Z,91.70
2018-09-06T07:23:23.217Z,91.70
2018-09-06T07:25:52.412Z,91.50
2018-09-06T07:28:21.610Z,91.40
2018-09-06T07:30:50.808Z,91.30
2018-09-06T07:33:20.027Z,91.00
2018-09-06T07:35:49.214Z,91.00
2018-09-06T07:38:18.421Z,90.80
2018-09-06T07:40:47.629Z,90.70
2018-09-06T07:43:16.863Z,90.50
2018-09-06T07:45:46.044Z,90.30
2018-09-06T07:48:15.220Z,90.10
2018-09-06T07:50:44.454Z,89.20
2018-09-06T07:53:13.741Z,89.00
2018-09-06T07:55:42.946Z,88.20
2018-09-06T07:58:12.133Z,87.30
2018-09-06T08:00:41.609Z,87.40
2018-09-06T08:03:11.720Z,86.70
2018-09-06T08:05:41.565Z,85.20
2018-09-06T08:08:11.172Z,85.10
2018-09-06T08:10:40.384Z,84.40
2018-09-06T08:13:09.565Z,83.70
2018-09-06T08:15:45.325Z,83.50
2018-09-06T08:18:14.500Z,83.90
2018-09-06T08:20:43.701Z,82.70
2018-09-06T08:23:12.880Z,82.00
2018-09-06T08:25:42.075Z,82.30
2018-09-06T08:28:11.245Z,80.90
2018-09-06T08:30:40.516Z,82.00
2018-09-06T08:33:09.681Z,81.60
2018-09-06T08:35:38.868Z,80.20
2018-09-06T08:38:08.440Z,79.10
2018-09-06T08:40:37.792Z,78.70
2018-09-06T08:43:07.371Z,78.60
2018-09-06T08:45:36.641Z,78.10
2018-09-06T08:48:05.868Z,78.00
2018-09-06T08:50:35.096Z,77.30
2018-09-06T08:53:04.288Z,76.60
2018-09-06T08:55:33.490Z,76.60
2018-09-06T08:58:02.684Z,76.80
2018-09-06T09:00:31.884Z,76.10
2018-09-06T09:03:01.090Z,76.10
2018-09-06T09:05:30.289Z,75.10
2018-09-06T09:07:59.502Z,74.80
2018-09-06T09:10:28.741Z,77.20
2018-09-06T09:12:57.932Z,74.10
2018-09-06T09:15:27.164Z,73.10
2018-09-06T09:17:56.450Z,73.00
2018-09-06T09:20:25.784Z,73.20
2018-09-06T09:22:54.995Z,73.10
2018-09-06T09:25:24.206Z,72.50
2018-09-06T09:27:53.392Z,72.00
2018-09-06T09:30:22.650Z,72.00
2018-09-06T09:32:51.985Z,70.90
2018-09-06T09:35:21.192Z,70.50
2018-09-06T09:37:50.381Z,70.70
2018-09-06T09:40:19.600Z,71.50
2018-09-06T09:42:48.806Z,70.10
2018-09-06T09:45:18.008Z,69.30
2018-09-06T09:47:47.244Z,66.40
2018-09-06T09:52:44.670Z,66.60
2018-09-06T09:55:13.895Z,67.40
2018-09-06T09:57:43.090Z,68.60
2018-09-06T10:00:12.353Z,67.50
2018-09-06T10:02:46.971Z,65.80
2018-09-06T10:05:21.532Z,63.80
2018-09-06T10:07:56.016Z,62.50
2018-09-06T10:10:25.526Z,61.50
2018-09-06T10:12:54.700Z,60.20
2018-09-06T10:15:23.906Z,61.90
2018-09-06T10:17:53.159Z,62.40
2018-09-06T10:20:22.404Z,62.20
2018-09-06T10:22:51.611Z,61.30
2018-09-06T10:25:20.897Z,60.60
2018-09-06T10:27:50.093Z,62.00
2018-09-06T10:30:19.289Z,62.00
2018-09-06T10:32:48.520Z,62.50
2018-09-06T10:35:17.820Z,61.50
2018-09-06T10:37:47.001Z,59.70
2018-09-06T10:40:16.212Z,58.80
2018-09-06T10:42:45.380Z,57.70
2018-09-06T10:45:14.620Z,57.60
2018-09-06T10:47:43.832Z,57.20
2018-09-06T10:50:13.032Z,56.10
2018-09-06T10:52:42.221Z,55.40
2018-09-06T10:55:11.396Z,53.20
2018-09-06T10:57:40.580Z,54.30
2018-09-06T11:00:09.864Z,54.50
2018-09-06T11:02:39.056Z,54.30
2018-09-06T11:05:08.269Z,53.40
2018-09-06T11:07:37.480Z,52.60
2018-09-06T11:10:06.742Z,53.20
2018-09-06T11:12:35.924Z,52.90
2018-09-06T11:15:05.309Z,52.80
2018-09-06T11:17:34.477Z,50.10
2018-09-06T11:20:10.348Z,49.10
2018-09-06T11:22:39.784Z,49.20
2018-09-06T11:25:09.122Z,49.50
2018-09-06T11:27:38.454Z,49.10
2018-09-06T11:30:07.707Z,48.30
2018-09-06T11:32:36.923Z,47.60
2018-09-06T11:35:06.224Z,46.20
2018-09-06T11:37:35.624Z,45.90
2018-09-06T11:40:04.876Z,45.60
2018-09-06T11:42:34.029Z,46.40
2018-09-06T11:45:03.221Z,46.80
2018-09-06T11:47:32.424Z,46.40
2018-09-06T11:50:01.639Z,44.80
2018-09-06T11:52:30.885Z,45.20
2018-09-06T11:55:00.189Z,44.40
2018-09-06T11:57:29.428Z,43.40
2018-09-06T11:59:58.589Z,43.80
2018-09-06T12:02:27.797Z,43.90
2018-09-06T12:04:57.021Z,44.40
2018-09-06T12:07:26.220Z,45.20
2018-09-06T12:09:55.415Z,45.10
2018-09-06T12:12:24.655Z,45.00
2018-09-06T12:14:53.835Z,43.40
2018-09-06T12:17:23.032Z,43.40
2018-09-06T12:19:52.270Z,43.40
2018-09-06T12:22:21.508Z,44.20
2018-09-06T12:24:50.689Z,43.90
2018-09-06T12:27:19.932Z,44.30
2018-09-06T12:29:49.137Z,43.90
2018-09-06T12:32:18.408Z,44.90
2018-09-06T12:34:47.560Z,44.10
2018-09-06T12:37:16.768Z,44.90
2018-09-06T12:39:46.701Z,44.80
2018-09-06T12:42:15.896Z,43.90
2018-09-06T12:44:45.093Z,42.90
2018-09-06T12:47:14.297Z,42.10
2018-09-06T12:49:43.546Z,41.80
2018-09-06T12:52:12.684Z,40.40
2018-09-06T12:54:41.944Z,40.60
2018-09-06T12:57:11.165Z,41.10
2018-09-06T12:59:40.368Z,40.80
2018-09-06T13:02:09.576Z,40.00
2018-09-06T13:04:38.886Z,40.00
2018-09-06T13:07:08.156Z,39.80
2018-09-06T13:09:37.455Z,40.10
2018-09-06T13:12:06.840Z,40.10
2018-09-06T13:14:36.053Z,40.20
2018-09-06T13:17:05.289Z,39.90
2018-09-06T13:19:34.909Z,40.20
2018-09-06T13:22:04.106Z,40.40
2018-09-06T13:24:33.299Z,40.40
2018-09-06T13:27:02.534Z,40.40
2018-09-06T13:29:31.728Z,41.10
2018-09-06T13:32:00.966Z,41.40
2018-09-06T13:34:30.152Z,41.50
2018-09-06T13:36:59.362Z,41.20
2018-09-06T13:39:28.548Z,41.90
2018-09-06T13:41:57.764Z,41.70
2018-09-06T13:44:26.949Z,42.10
2018-09-06T13:46:56.157Z,41.30
2018-09-06T13:49:25.342Z,41.70
2018-09-06T13:51:54.556Z,41.80
2018-09-06T13:54:23.724Z,42.10
2018-09-06T13:56:53.280Z,41.80
2018-09-06T13:59:22.456Z,42.40
2018-09-06T14:01:51.656Z,42.50
2018-09-06T14:04:22.440Z,42.60
2018-09-06T14:06:51.891Z,42.60
2018-09-06T14:09:21.081Z,42.90
2018-09-06T14:11:50.284Z,42.70
2018-09-06T14:14:19.452Z,43.10
2018-09-06T14:16:48.707Z,43.50
2018-09-06T14:19:17.913Z,43.50
2018-09-06T14:21:47.134Z,43.80
2018-09-06T14:24:16.376Z,43.60
2018-09-06T14:26:45.524Z,43.20
2018-09-06T14:29:14.697Z,42.90
2018-09-06T14:31:43.896Z,43.30
2018-09-06T14:34:13.062Z,43.90
2018-09-06T14:36:42.260Z,44.00
2018-09-06T14:39:11.466Z,44.00
2018-09-06T14:41:40.662Z,43.70
2018-09-06T14:44:09.927Z,43.60
2018-09-06T14:46:39.068Z,44.10
2018-09-06T14:49:08.284Z,43.90
2018-09-06T14:51:37.521Z,43.80
2018-09-06T14:54:07.035Z,44.30
2018-09-06T14:56:36.249Z,44.20
2018-09-06T14:59:05.733Z,44.70
2018-09-06T15:01:35.097Z,44.50
2018-09-06T15:04:04.295Z,44.30
2018-09-06T15:06:33.501Z,43.90
2018-09-06T15:09:02.768Z,43.80
2018-09-06T15:11:31.956Z,44.10
2018-09-06T15:14:01.272Z,44.60
2018-09-06T15:16:30.366Z,44.70
2018-09-06T15:18:59.565Z,44.60
2018-09-06T15:21:28.778Z,44.80
2018-09-06T15:23:58.253Z,44.50
2018-09-06T15:26:27.581Z,44.40
2018-09-06T15:28:56.834Z,44.80
2018-09-06T15:31:26.181Z,45.10
2018-09-06T15:33:55.368Z,45.60
2018-09-06T15:36:24.572Z,45.70
2018-09-06T15:38:53.806Z,45.80
2018-09-06T15:41:23.060Z,45.60
2018-09-06T15:43:52.271Z,44.10
2018-09-06T15:46:21.505Z,44.20
2018-09-06T15:48:51.014Z,44.30
2018-09-06T15:51:20.205Z,44.30
2018-09-06T15:53:49.427Z,44.00
2018-09-06T15:56:18.636Z,44.30
2018-09-06T15:58:47.845Z,44.80
2018-09-06T16:01:23.692Z,44.70
2018-09-06T16:03:53.042Z,44.90
2018-09-06T16:06:22.221Z,44.30
2018-09-06T16:08:51.440Z,44.80
2018-09-06T16:11:20.970Z,44.80
2018-09-06T16:13:50.140Z,45.20
2018-09-06T16:16:19.334Z,45.40
2018-09-06T16:18:48.972Z,45.60
2018-09-06T16:21:18.172Z,45.60
2018-09-06T16:23:47.381Z,45.90
2018-09-06T16:26:16.619Z,46.10
2018-09-06T16:28:45.828Z,46.30
2018-09-06T16:31:15.044Z,46.50
2018-09-06T16:33:44.300Z,46.80
2018-09-06T16:36:13.478Z,47.10
2018-09-06T16:38:42.673Z,47.80
2018-09-06T16:41:11.904Z,47.20
2018-09-06T16:43:41.276Z,47.40
2018-09-06T16:46:10.473Z,47.60
2018-09-06T16:48:39.812Z,48.00
2018-09-06T16:51:09.067Z,48.20
2018-09-06T16:53:38.340Z,48.40
2018-09-06T16:56:07.576Z,49.10
2018-09-06T16:58:36.784Z,48.80
2018-09-06T17:01:06.082Z,49.00
2018-09-06T17:03:35.312Z,49.90
2018-09-06T17:06:04.479Z,49.60
2018-09-06T17:08:33.708Z,49.80
2018-09-06T17:11:03.520Z,50.00
2018-09-06T17:13:32.776Z,50.20
2018-09-06T17:16:01.988Z,50.50
2018-09-06T17:18:31.222Z,51.00
2018-09-06T17:21:00.428Z,51.40
2018-09-06T17:23:29.802Z,52.30
2018-09-06T17:25:59.112Z,52.30
2018-09-06T17:28:28.389Z,52.40
2018-09-06T17:30:57.577Z,52.10
2018-09-06T17:33:26.792Z,53.10
2018-09-06T17:35:56.004Z,54.10
2018-09-06T17:38:25.243Z,56.40
2018-09-06T17:40:54.428Z,56.00
2018-09-06T17:43:23.636Z,56.50
2018-09-06T17:45:52.971Z,55.80
2018-09-06T17:48:22.205Z,56.20
2018-09-06T17:50:51.390Z,57.40
2018-09-06T17:53:20.624Z,58.70
2018-09-06T17:55:50.419Z,57.70
2018-09-06T17:58:19.623Z,58.90
2018-09-06T18:02:03.667Z,58.70
2018-09-06T18:04:32.991Z,59.30
2018-09-06T18:07:02.203Z,61.00
2018-09-06T18:09:31.516Z,60.70
2018-09-06T18:12:00.725Z,61.10
2018-09-06T18:14:29.956Z,62.00
2018-09-06T18:16:59.183Z,62.50
2018-09-06T18:19:28.383Z,62.10
2018-09-06T18:21:57.621Z,62.10
2018-09-06T18:24:26.875Z,62.50
2018-09-06T18:26:56.089Z,61.50
2018-09-06T18:29:25.600Z,62.00
2018-09-06T18:31:54.857Z,62.50
2018-09-06T18:34:24.051Z,62.30
2018-09-06T18:36:53.632Z,63.20
2018-09-06T18:39:22.841Z,62.70
2018-09-06T18:41:52.060Z,64.50
2018-09-06T18:44:21.724Z,65.20
2018-09-06T18:46:50.936Z,64.90
2018-09-06T18:49:20.400Z,64.90
2018-09-06T18:51:49.606Z,64.60
2018-09-06T18:54:19.282Z,65.60
2018-09-06T18:56:48.472Z,65.50
2018-09-06T18:59:17.720Z,66.00
2018-09-06T19:01:46.936Z,66.30
2018-09-06T19:04:16.128Z,66.60
2018-09-06T19:06:45.488Z,66.60
2018-09-06T19:09:14.767Z,67.40
2018-09-06T19:11:44.429Z,66.10
2018-09-06T19:14:13.937Z,66.60
2018-09-06T19:16:43.609Z,66.50
2018-09-06T19:19:12.844Z,66.80
2018-09-06T19:21:42.063Z,67.10
2018-09-06T19:24:11.293Z,67.10
2018-09-06T19:26:40.864Z,67.70
2018-09-06T19:29:10.108Z,67.20
2018-09-06T19:31:39.324Z,67.40
2018-09-06T19:34:09.424Z,67.10
2018-09-06T19:36:38.632Z,67.10
2018-09-06T19:39:11.266Z,67.30
2018-09-06T19:41:40.524Z,68.40
2018-09-06T19:44:10.123Z,67.70
2018-09-06T19:46:39.318Z,67.60
2018-09-06T19:49:08.596Z,68.50
2018-09-06T19:51:37.859Z,68.90
2018-09-06T19:54:07.323Z,69.50
2018-09-06T19:56:36.664Z,69.80
2018-09-06T19:59:05.963Z,70.00
2018-09-06T20:01:35.306Z,69.80
2018-09-06T20:04:04.532Z,70.70
2018-09-06T20:06:33.738Z,70.00
2018-09-06T20:09:02.958Z,70.70
2018-09-06T20:11:32.200Z,70.70
2018-09-06T20:14:01.509Z,71.30
2018-09-06T20:16:30.760Z,70.70
2018-09-06T20:18:59.972Z,71.30
2018-09-06T20:21:29.665Z,71.70
2018-09-06T20:23:58.909Z,71.70
2018-09-06T20:26:28.229Z,71.20
2018-09-06T20:28:57.725Z,71.00
2018-09-06T20:31:26.945Z,72.20
2018-09-06T20:33:56.149Z,71.50
2018-09-06T20:36:25.365Z,71.80
2018-09-06T20:38:54.549Z,72.20
2018-09-06T20:41:23.816Z,72.60
2018-09-06T20:43:53.032Z,72.60
2018-09-06T20:46:22.253Z,73.10
2018-09-06T20:48:51.458Z,73.40
2018-09-06T20:51:20.676Z,73.60
2018-09-06T20:53:50.312Z,74.10
2018-09-06T20:56:19.512Z,74.80
2018-09-06T20:58:49.009Z,75.00
2018-09-06T21:01:18.228Z,75.80
2018-09-06T21:03:47.434Z,75.30
2018-09-06T21:06:16.690Z,75.40
2018-09-06T21:08:46.516Z,75.10
2018-09-06T21:11:15.705Z,76.00
2018-09-06T21:14:02.156Z,76.20
2018-09-06T21:16:31.418Z,75.70
2018-09-06T21:19:05.407Z,75.80
2018-09-06T21:21:34.684Z,75.50
2018-09-06T21:24:03.884Z,75.30
2018-09-06T21:26:33.173Z,74.90
2018-09-06T21:29:03.285Z,74.80
2018-09-06T21:31:32.513Z,75.10
2018-09-06T21:34:02.357Z,75.40
2018-09-06T21:36:31.902Z,75.40
2018-09-06T21:39:01.108Z,75.50
2018-09-06T21:41:30.383Z,75.40
2018-09-06T21:43:59.575Z,75.40
2018-09-06T21:46:28.778Z,75.40
2018-09-06T21:48:58.394Z,75.40
2018-09-06T21:51:27.622Z,75.70
2018-09-06T21:53:56.809Z,75.70
2018-09-06T21:56:26.028Z,75.60
2018-09-06T21:58:55.388Z,75.60
2018-09-06T22:01:24.928Z,75.50
2018-09-06T22:03:59.365Z,75.60
2018-09-06T22:06:28.616Z,75.60
2018-09-06T22:08:57.821Z,75.80
2018-09-06T22:11:27.026Z,75.90
2018-09-06T22:13:56.235Z,76.10
2018-09-06T22:16:25.476Z,76.10
2018-09-06T22:18:54.669Z,76.20
2018-09-06T22:21:23.901Z,75.60
2018-09-06T22:23:53.422Z,75.80
2018-09-06T22:26:22.652Z,75.30
2018-09-06T22:28:51.941Z,75.60
2018-09-06T22:31:21.192Z,75.50
2018-09-06T22:33:50.400Z,76.10
2018-09-06T22:36:19.606Z,76.30
2018-09-06T22:38:48.824Z,76.60
2018-09-06T22:41:18.076Z,77.30
2018-09-06T22:43:50.177Z,77.90
2018-09-06T22:46:19.457Z,78.10
2018-09-06T22:48:48.752Z,78.30
2018-09-06T22:51:17.931Z,78.70
2018-09-06T22:53:47.104Z,78.70
2018-09-06T22:56:16.365Z,78.70
2018-09-06T22:58:45.549Z,78.40
2018-09-06T23:01:14.760Z,78.40
2018-09-06T23:03:44.692Z,78.80
2018-09-06T23:06:13.900Z,80.20
2018-09-06T23:08:43.131Z,82.20
2018-09-06T23:11:12.334Z,83.00
2018-09-06T23:13:41.544Z,82.60
2018-09-06T23:16:10.792Z,83.10
2018-09-06T23:18:39.984Z,83.60
2018-09-06T23:21:09.200Z,83.40
2018-09-06T23:23:38.403Z,83.80
2018-09-06T23:26:07.964Z,83.90
2018-09-06T23:28:37.204Z,84.00
2018-09-06T23:31:06.436Z,83.90
2018-09-06T23:33:35.667Z,83.70
2018-09-06T23:36:04.913Z,83.70
2018-09-06T23:38:34.110Z,83.60
2018-09-06T23:41:03.340Z,83.50
2018-09-06T23:43:32.556Z,83.50
2018-09-06T23:46:01.748Z,83.50
2018-09-06T23:48:31.104Z,83.50
2018-09-06T23:51:00.313Z,83.60
2018-09-06T23:53:29.603Z,83.80
2018-09-06T23:55:58.796Z,84.50
2018-09-06T23:58:27.964Z,85.70
